sensor_id;sensor_type;location;lat;lon;timestamp;P1;durP1;ratioP1;P2;durP2;ratioP2
4307;SDS011;2167;53.448;9.984;2024-03-23T00:53:49;7.63;;;1.80;;
4307;SDS011;2167;53.448;9.984;2024-03-23T00:56:14;14.80;;;3.00;;
4307;SDS011;2167;53.448;9.984;2024-03-23T00:58:40;9.73;;;2.30;;
4307;SDS011;2167;53.448;9.984;2024-03-23T01:01:06;7.50;;;2.70;;
4307;SDS011;2167;53.448;9.984;2024-03-23T01:03:31;9.50;;;2.67;;
4307;SDS011;2167;53.448;9.984;2024-03-23T01:06:00;6.53;;;2.23;;
4307;SDS011;2167;53.448;9.984;2024-03-23T01:08:26;5.43;;;2.47;;
4307;SDS011;2167;53.448;9.984;2024-03-23T01:10:56;5.60;;;1.63;;
4307;SDS011;2167;53.448;9.984;2024-03-23T01:13:22;12.37;;;4.30;;
4307;SDS011;2167;53.448;9.984;2024-03-23T01:15:48;16.17;;;2.73;;
4307;SDS011;2167;53.448;9.984;2024-03-23T01:18:14;12.90;;;3.10;;
4307;SDS011;2167;53.448;9.984;2024-03-23T01:20:39;7.63;;;2.20;;
4307;SDS011;2167;53.448;9.984;2024-03-23T01:23:05;9.23;;;2.40;;
4307;SDS011;2167;53.448;9.984;2024-03-23T01:25:30;6.93;;;2.83;;
4307;SDS011;2167;53.448;9.984;2024-03-23T01:27:56;6.90;;;1.60;;
4307;SDS011;2167;53.448;9.984;2024-03-23T01:30:22;8.27;;;2.27;;
4307;SDS011;2167;53.448;9.984;2024-03-23T01:32:47;7.53;;;1.90;;
4307;SDS011;2167;53.448;9.984;2024-03-23T01:35:13;12.20;;;2.80;;
4307;SDS011;2167;53.448;9.984;2024-03-23T01:37:38;6.63;;;1.67;;
4307;SDS011;2167;53.448;9.984;2024-03-23T01:40:04;10.00;;;3.23;;
4307;SDS011;2167;53.448;9.984;2024-03-23T01:42:30;6.97;;;2.00;;
4307;SDS011;2167;53.448;9.984;2024-03-23T01:44:55;10.90;;;2.17;;
4307;SDS011;2167;53.448;9.984;2024-03-23T01:47:21;14.53;;;3.10;;
4307;SDS011;2167;53.448;9.984;2024-03-23T01:49:46;17.73;;;2.20;;
4307;SDS011;2167;53.448;9.984;2024-03-23T01:55:46;7.33;;;2.50;;
4307;SDS011;2167;53.448;9.984;2024-03-23T02:02:00;8.10;;;1.67;;
4307;SDS011;2167;53.448;9.984;2024-03-23T02:22:03;12.80;;;2.03;;
4307;SDS011;2167;53.448;9.984;2024-03-23T02:24:32;5.33;;;1.63;;
4307;SDS011;2167;53.448;9.984;2024-03-23T02:27:07;19.23;;;1.70;;
4307;SDS011;2167;53.448;9.984;2024-03-23T02:33:18;7.77;;;2.30;;
4307;SDS011;2167;53.448;9.984;2024-03-23T02:42:56;14.43;;;2.60;;
4307;SDS011;2167;53.448;9.984;2024-03-23T03:07:30;6.80;;;1.90;;
4307;SDS011;2167;53.448;9.984;2024-03-23T03:09:56;4.27;;;1.80;;
4307;SDS011;2167;53.448;9.984;2024-03-23T03:12:21;3.93;;;1.47;;
4307;SDS011;2167;53.448;9.984;2024-03-23T03:14:47;6.23;;;3.27;;
4307;SDS011;2167;53.448;9.984;2024-03-23T03:17:13;20.03;;;2.07;;
4307;SDS011;2167;53.448;9.984;2024-03-23T03:19:39;5.27;;;1.23;;
4307;SDS011;2167;53.448;9.984;2024-03-23T03:22:05;7.23;;;2.17;;
4307;SDS011;2167;53.448;9.984;2024-03-23T03:24:31;19.67;;;2.03;;
4307;SDS011;2167;53.448;9.984;2024-03-23T03:26:56;15.33;;;1.83;;
4307;SDS011;2167;53.448;9.984;2024-03-23T03:29:23;13.73;;;2.60;;
4307;SDS011;2167;53.448;9.984;2024-03-23T03:31:49;10.93;;;2.43;;
4307;SDS011;2167;53.448;9.984;2024-03-23T03:34:15;14.33;;;2.60;;
4307;SDS011;2167;53.448;9.984;2024-03-23T03:36:41;6.23;;;2.73;;
4307;SDS011;2167;53.448;9.984;2024-03-23T03:39:06;5.30;;;2.50;;
4307;SDS011;2167;53.448;9.984;2024-03-23T03:41:32;17.70;;;2.40;;
4307;SDS011;2167;53.448;9.984;2024-03-23T03:43:57;13.50;;;2.37;;
4307;SDS011;2167;53.448;9.984;2024-03-23T03:46:27;7.80;;;2.90;;
4307;SDS011;2167;53.448;9.984;2024-03-23T03:48:54;11.40;;;2.17;;
4307;SDS011;2167;53.448;9.984;2024-03-23T03:51:19;16.70;;;4.40;;
4307;SDS011;2167;53.448;9.984;2024-03-23T03:53:46;18.43;;;3.20;;
4307;SDS011;2167;53.448;9.984;2024-03-23T03:56:11;14.43;;;2.60;;
4307;SDS011;2167;53.448;9.984;2024-03-23T03:58:37;11.67;;;1.73;;
4307;SDS011;2167;53.448;9.984;2024-03-23T04:01:02;8.83;;;1.80;;
4307;SDS011;2167;53.448;9.984;2024-03-23T04:03:28;2.50;;;1.80;;
4307;SDS011;2167;53.448;9.984;2024-03-23T04:05:54;12.00;;;2.10;;
4307;SDS011;2167;53.448;9.984;2024-03-23T04:08:19;2.40;;;1.50;;
4307;SDS011;2167;53.448;9.984;2024-03-23T04:10:45;8.63;;;1.43;;
4307;SDS011;2167;53.448;9.984;2024-03-23T04:13:11;10.97;;;2.63;;
4307;SDS011;2167;53.448;9.984;2024-03-23T04:15:37;6.43;;;2.33;;
4307;SDS011;2167;53.448;9.984;2024-03-23T04:18:03;9.23;;;1.53;;
4307;SDS011;2167;53.448;9.984;2024-03-23T04:20:29;3.20;;;1.60;;
4307;SDS011;2167;53.448;9.984;2024-03-23T04:23:00;11.10;;;1.87;;
4307;SDS011;2167;53.448;9.984;2024-03-23T04:25:26;2.83;;;1.23;;
4307;SDS011;2167;53.448;9.984;2024-03-23T04:27:51;5.53;;;1.53;;
4307;SDS011;2167;53.448;9.984;2024-03-23T04:30:17;7.03;;;1.80;;
4307;SDS011;2167;53.448;9.984;2024-03-23T04:32:44;17.63;;;2.30;;
4307;SDS011;2167;53.448;9.984;2024-03-23T04:35:09;3.20;;;1.37;;
4307;SDS011;2167;53.448;9.984;2024-03-23T04:37:35;9.90;;;1.73;;
4307;SDS011;2167;53.448;9.984;2024-03-23T04:40:02;11.87;;;1.93;;
4307;SDS011;2167;53.448;9.984;2024-03-23T04:42:28;19.03;;;2.10;;
4307;SDS011;2167;53.448;9.984;2024-03-23T04:44:54;5.50;;;2.03;;
4307;SDS011;2167;53.448;9.984;2024-03-23T04:47:20;12.10;;;3.60;;
4307;SDS011;2167;53.448;9.984;2024-03-23T04:49:47;10.70;;;2.20;;
4307;SDS011;2167;53.448;9.984;2024-03-23T04:52:13;12.98;;;2.80;;
4307;SDS011;2167;53.448;9.984;2024-03-23T04:54:40;2.80;;;1.20;;
4307;SDS011;2167;53.448;9.984;2024-03-23T04:57:06;14.60;;;2.67;;
4307;SDS011;2167;53.448;9.984;2024-03-23T04:59:32;9.43;;;2.90;;
4307;SDS011;2167;53.448;9.984;2024-03-23T05:01:58;6.13;;;1.10;;
4307;SDS011;2167;53.448;9.984;2024-03-23T05:04:24;11.23;;;2.80;;
4307;SDS011;2167;53.448;9.984;2024-03-23T05:06:50;6.30;;;2.30;;
4307;SDS011;2167;53.448;9.984;2024-03-23T05:09:15;19.20;;;3.87;;
4307;SDS011;2167;53.448;9.984;2024-03-23T05:11:41;12.10;;;2.87;;
4307;SDS011;2167;53.448;9.984;2024-03-23T05:14:07;10.53;;;1.90;;
4307;SDS011;2167;53.448;9.984;2024-03-23T05:16:33;13.97;;;1.93;;
4307;SDS011;2167;53.448;9.984;2024-03-23T05:18:58;4.20;;;2.10;;
4307;SDS011;2167;53.448;9.984;2024-03-23T05:21:24;8.87;;;1.93;;
4307;SDS011;2167;53.448;9.984;2024-03-23T05:23:53;8.87;;;3.30;;
4307;SDS011;2167;53.448;9.984;2024-03-23T05:26:19;5.23;;;1.67;;
4307;SDS011;2167;53.448;9.984;2024-03-23T05:28:44;7.93;;;1.40;;
4307;SDS011;2167;53.448;9.984;2024-03-23T05:31:10;8.85;;;2.20;;
4307;SDS011;2167;53.448;9.984;2024-03-23T05:33:36;7.33;;;1.90;;
4307;SDS011;2167;53.448;9.984;2024-03-23T05:36:05;10.33;;;2.77;;
4307;SDS011;2167;53.448;9.984;2024-03-23T05:38:30;6.97;;;2.03;;
4307;SDS011;2167;53.448;9.984;2024-03-23T05:40:59;11.43;;;2.70;;
4307;SDS011;2167;53.448;9.984;2024-03-23T05:43:25;11.40;;;2.07;;
4307;SDS011;2167;53.448;9.984;2024-03-23T05:45:56;3.87;;;2.03;;
4307;SDS011;2167;53.448;9.984;2024-03-23T05:48:22;7.80;;;2.20;;
4307;SDS011;2167;53.448;9.984;2024-03-23T05:50:48;11.60;;;2.17;;
4307;SDS011;2167;53.448;9.984;2024-03-23T05:53:17;6.10;;;1.77;;
4307;SDS011;2167;53.448;9.984;2024-03-23T05:55:43;10.83;;;1.83;;
4307;SDS011;2167;53.448;9.984;2024-03-23T05:58:09;9.17;;;2.80;;
4307;SDS011;2167;53.448;9.984;2024-03-23T06:00:35;4.53;;;1.53;;
4307;SDS011;2167;53.448;9.984;2024-03-23T06:03:00;7.97;;;1.30;;
4307;SDS011;2167;53.448;9.984;2024-03-23T06:05:26;22.23;;;3.03;;
4307;SDS011;2167;53.448;9.984;2024-03-23T06:07:53;11.53;;;2.80;;
4307;SDS011;2167;53.448;9.984;2024-03-23T06:10:19;8.50;;;2.40;;
4307;SDS011;2167;53.448;9.984;2024-03-23T06:12:47;5.70;;;2.97;;
4307;SDS011;2167;53.448;9.984;2024-03-23T06:15:14;5.97;;;1.77;;
4307;SDS011;2167;53.448;9.984;2024-03-23T06:17:39;12.17;;;2.77;;
4307;SDS011;2167;53.448;9.984;2024-03-23T06:20:05;19.80;;;3.07;;
4307;SDS011;2167;53.448;9.984;2024-03-23T06:22:31;8.40;;;2.20;;
4307;SDS011;2167;53.448;9.984;2024-03-23T06:24:58;11.37;;;2.90;;
4307;SDS011;2167;53.448;9.984;2024-03-23T06:27:24;7.90;;;1.60;;
4307;SDS011;2167;53.448;9.984;2024-03-23T06:29:54;10.27;;;2.87;;
4307;SDS011;2167;53.448;9.984;2024-03-23T06:32:20;6.93;;;1.57;;
4307;SDS011;2167;53.448;9.984;2024-03-23T06:34:46;6.27;;;1.90;;
4307;SDS011;2167;53.448;9.984;2024-03-23T06:37:11;7.40;;;2.03;;
4307;SDS011;2167;53.448;9.984;2024-03-23T06:39:37;13.93;;;2.13;;
4307;SDS011;2167;53.448;9.984;2024-03-23T06:42:03;4.07;;;1.90;;
4307;SDS011;2167;53.448;9.984;2024-03-23T06:44:29;5.50;;;2.33;;
4307;SDS011;2167;53.448;9.984;2024-03-23T06:46:55;21.83;;;2.83;;
4307;SDS011;2167;53.448;9.984;2024-03-23T06:49:22;9.43;;;2.00;;
4307;SDS011;2167;53.448;9.984;2024-03-23T06:51:48;11.47;;;1.77;;
4307;SDS011;2167;53.448;9.984;2024-03-23T06:54:14;9.30;;;2.40;;
4307;SDS011;2167;53.448;9.984;2024-03-23T06:56:40;6.57;;;2.30;;
4307;SDS011;2167;53.448;9.984;2024-03-23T06:59:06;8.13;;;1.97;;
4307;SDS011;2167;53.448;9.984;2024-03-23T07:01:31;10.23;;;3.23;;
4307;SDS011;2167;53.448;9.984;2024-03-23T07:03:57;7.07;;;2.10;;
4307;SDS011;2167;53.448;9.984;2024-03-23T07:06:22;9.57;;;1.90;;
4307;SDS011;2167;53.448;9.984;2024-03-23T07:08:48;11.27;;;2.80;;
4307;SDS011;2167;53.448;9.984;2024-03-23T07:11:23;10.67;;;2.37;;
4307;SDS011;2167;53.448;9.984;2024-03-23T07:13:49;15.40;;;4.23;;
4307;SDS011;2167;53.448;9.984;2024-03-23T07:16:20;5.90;;;1.60;;
4307;SDS011;2167;53.448;9.984;2024-03-23T07:18:45;6.30;;;2.13;;
4307;SDS011;2167;53.448;9.984;2024-03-23T07:21:11;9.87;;;2.40;;
4307;SDS011;2167;53.448;9.984;2024-03-23T07:23:37;7.17;;;2.60;;
4307;SDS011;2167;53.448;9.984;2024-03-23T07:26:03;6.63;;;2.17;;
4307;SDS011;2167;53.448;9.984;2024-03-23T07:28:30;5.83;;;2.10;;
4307;SDS011;2167;53.448;9.984;2024-03-23T07:31:06;6.93;;;2.10;;
4307;SDS011;2167;53.448;9.984;2024-03-23T07:33:45;5.33;;;1.83;;
4307;SDS011;2167;53.448;9.984;2024-03-23T07:36:12;9.00;;;2.80;;
4307;SDS011;2167;53.448;9.984;2024-03-23T07:38:40;6.10;;;3.23;;
4307;SDS011;2167;53.448;9.984;2024-03-23T07:41:07;6.90;;;1.77;;
4307;SDS011;2167;53.448;9.984;2024-03-23T07:43:34;3.87;;;1.50;;
4307;SDS011;2167;53.448;9.984;2024-03-23T07:46:01;5.53;;;1.70;;
4307;SDS011;2167;53.448;9.984;2024-03-23T07:48:28;5.03;;;2.40;;
4307;SDS011;2167;53.448;9.984;2024-03-23T07:53:31;8.13;;;2.87;;
4307;SDS011;2167;53.448;9.984;2024-03-23T07:56:07;7.60;;;2.30;;
4307;SDS011;2167;53.448;9.984;2024-03-23T07:58:34;6.70;;;2.00;;
4307;SDS011;2167;53.448;9.984;2024-03-23T08:01:11;5.50;;;2.40;;
4307;SDS011;2167;53.448;9.984;2024-03-23T08:03:40;7.77;;;2.23;;
4307;SDS011;2167;53.448;9.984;2024-03-23T08:08:32;9.05;;;2.60;;
4307;SDS011;2167;53.448;9.984;2024-03-23T08:10:58;4.03;;;1.70;;
4307;SDS011;2167;53.448;9.984;2024-03-23T08:13:23;8.03;;;2.43;;
4307;SDS011;2167;53.448;9.984;2024-03-23T08:15:49;9.70;;;2.77;;
4307;SDS011;2167;53.448;9.984;2024-03-23T08:18:14;4.20;;;2.43;;
4307;SDS011;2167;53.448;9.984;2024-03-23T08:20:41;15.60;;;3.23;;
4307;SDS011;2167;53.448;9.984;2024-03-23T08:23:06;8.20;;;2.43;;
4307;SDS011;2167;53.448;9.984;2024-03-23T08:25:33;9.27;;;1.80;;
4307;SDS011;2167;53.448;9.984;2024-03-23T08:27:59;10.60;;;2.60;;
4307;SDS011;2167;53.448;9.984;2024-03-23T08:30:25;9.67;;;1.93;;
4307;SDS011;2167;53.448;9.984;2024-03-23T08:32:51;11.70;;;2.40;;
4307;SDS011;2167;53.448;9.984;2024-03-23T08:35:17;3.70;;;1.90;;
4307;SDS011;2167;53.448;9.984;2024-03-23T08:37:42;6.60;;;1.50;;
4307;SDS011;2167;53.448;9.984;2024-03-23T08:40:08;11.10;;;2.90;;
4307;SDS011;2167;53.448;9.984;2024-03-23T08:42:34;6.60;;;1.90;;
4307;SDS011;2167;53.448;9.984;2024-03-23T08:45:00;11.07;;;2.90;;
4307;SDS011;2167;53.448;9.984;2024-03-23T08:47:25;8.97;;;2.27;;
4307;SDS011;2167;53.448;9.984;2024-03-23T08:49:51;9.30;;;1.73;;
4307;SDS011;2167;53.448;9.984;2024-03-23T08:52:17;9.67;;;2.73;;
4307;SDS011;2167;53.448;9.984;2024-03-23T08:54:43;7.03;;;2.93;;
4307;SDS011;2167;53.448;9.984;2024-03-23T08:57:08;9.63;;;1.80;;
4307;SDS011;2167;53.448;9.984;2024-03-23T08:59:34;4.37;;;1.73;;
4307;SDS011;2167;53.448;9.984;2024-03-23T09:02:00;6.90;;;2.07;;
4307;SDS011;2167;53.448;9.984;2024-03-23T09:04:25;6.63;;;1.43;;
4307;SDS011;2167;53.448;9.984;2024-03-23T09:06:51;4.20;;;1.83;;
4307;SDS011;2167;53.448;9.984;2024-03-23T09:09:17;18.13;;;2.03;;
4307;SDS011;2167;53.448;9.984;2024-03-23T09:11:44;8.37;;;2.03;;
4307;SDS011;2167;53.448;9.984;2024-03-23T09:14:09;10.80;;;2.00;;
4307;SDS011;2167;53.448;9.984;2024-03-23T09:16:35;15.77;;;2.10;;
4307;SDS011;2167;53.448;9.984;2024-03-23T09:19:01;6.70;;;1.40;;
4307;SDS011;2167;53.448;9.984;2024-03-23T09:21:26;8.20;;;2.37;;
4307;SDS011;2167;53.448;9.984;2024-03-23T09:23:52;3.80;;;1.63;;
4307;SDS011;2167;53.448;9.984;2024-03-23T09:26:17;9.33;;;2.23;;
4307;SDS011;2167;53.448;9.984;2024-03-23T09:28:43;5.93;;;2.20;;
4307;SDS011;2167;53.448;9.984;2024-03-23T09:31:08;7.43;;;1.70;;
4307;SDS011;2167;53.448;9.984;2024-03-23T09:33:39;6.70;;;1.43;;
4307;SDS011;2167;53.448;9.984;2024-03-23T09:36:04;6.63;;;1.20;;
4307;SDS011;2167;53.448;9.984;2024-03-23T09:38:31;3.40;;;1.47;;
4307;SDS011;2167;53.448;9.984;2024-03-23T09:40:57;7.83;;;2.27;;
4307;SDS011;2167;53.448;9.984;2024-03-23T09:43:23;14.10;;;1.83;;
4307;SDS011;2167;53.448;9.984;2024-03-23T09:45:48;5.67;;;1.30;;
4307;SDS011;2167;53.448;9.984;2024-03-23T09:48:14;3.50;;;1.50;;
4307;SDS011;2167;53.448;9.984;2024-03-23T09:50:43;10.30;;;1.70;;
4307;SDS011;2167;53.448;9.984;2024-03-23T09:53:11;2.73;;;1.40;;
4307;SDS011;2167;53.448;9.984;2024-03-23T09:55:38;1.83;;;0.93;;
4307;SDS011;2167;53.448;9.984;2024-03-23T09:58:09;3.33;;;1.47;;
4307;SDS011;2167;53.448;9.984;2024-03-23T10:00:38;5.33;;;1.00;;
4307;SDS011;2167;53.448;9.984;2024-03-23T10:03:04;10.43;;;1.87;;
4307;SDS011;2167;53.448;9.984;2024-03-23T10:05:31;8.00;;;1.60;;
4307;SDS011;2167;53.448;9.984;2024-03-23T10:07:59;4.47;;;1.47;;
4307;SDS011;2167;53.448;9.984;2024-03-23T10:10:25;4.07;;;2.00;;
4307;SDS011;2167;53.448;9.984;2024-03-23T10:12:51;5.40;;;1.33;;
4307;SDS011;2167;53.448;9.984;2024-03-23T10:15:24;2.93;;;1.33;;
4307;SDS011;2167;53.448;9.984;2024-03-23T10:17:50;5.37;;;1.10;;
4307;SDS011;2167;53.448;9.984;2024-03-23T10:20:20;2.23;;;1.20;;
4307;SDS011;2167;53.448;9.984;2024-03-23T10:22:47;7.30;;;2.03;;
4307;SDS011;2167;53.448;9.984;2024-03-23T10:25:14;5.43;;;1.70;;
4307;SDS011;2167;53.448;9.984;2024-03-23T10:27:41;4.13;;;1.20;;
4307;SDS011;2167;53.448;9.984;2024-03-23T10:30:08;6.70;;;1.40;;
4307;SDS011;2167;53.448;9.984;2024-03-23T10:32:35;7.20;;;1.27;;
4307;SDS011;2167;53.448;9.984;2024-03-23T10:35:17;2.80;;;1.40;;
4307;SDS011;2167;53.448;9.984;2024-03-23T10:37:44;14.30;;;1.23;;
4307;SDS011;2167;53.448;9.984;2024-03-23T10:40:17;5.97;;;1.40;;
4307;SDS011;2167;53.448;9.984;2024-03-23T10:42:43;4.50;;;1.30;;
4307;SDS011;2167;53.448;9.984;2024-03-23T10:45:09;3.27;;;1.43;;
4307;SDS011;2167;53.448;9.984;2024-03-23T10:47:36;2.77;;;1.13;;
4307;SDS011;2167;53.448;9.984;2024-03-23T10:50:03;5.87;;;1.90;;
4307;SDS011;2167;53.448;9.984;2024-03-23T10:52:30;4.53;;;1.20;;
4307;SDS011;2167;53.448;9.984;2024-03-23T10:54:57;5.70;;;1.33;;
4307;SDS011;2167;53.448;9.984;2024-03-23T10:57:30;5.23;;;1.57;;
4307;SDS011;2167;53.448;9.984;2024-03-23T11:00:06;1.90;;;1.00;;
4307;SDS011;2167;53.448;9.984;2024-03-23T11:02:33;3.20;;;1.13;;
4307;SDS011;2167;53.448;9.984;2024-03-23T11:24:17;0.40;;;0.40;;
4307;SDS011;2167;53.448;9.984;2024-03-23T11:26:44;4.00;;;1.40;;
4307;SDS011;2167;53.448;9.984;2024-03-23T11:29:13;5.43;;;1.60;;
4307;SDS011;2167;53.448;9.984;2024-03-23T11:31:49;2.70;;;1.10;;
4307;SDS011;2167;53.448;9.984;2024-03-23T11:34:17;3.23;;;1.00;;
4307;SDS011;2167;53.448;9.984;2024-03-23T11:36:44;5.13;;;1.30;;
4307;SDS011;2167;53.448;9.984;2024-03-23T11:39:13;4.47;;;1.63;;
4307;SDS011;2167;53.448;9.984;2024-03-23T11:41:51;1.60;;;0.77;;
4307;SDS011;2167;53.448;9.984;2024-03-23T11:44:18;4.07;;;1.30;;
4307;SDS011;2167;53.448;9.984;2024-03-23T11:46:44;2.03;;;1.20;;
4307;SDS011;2167;53.448;9.984;2024-03-23T11:49:20;1.97;;;0.80;;
4307;SDS011;2167;53.448;9.984;2024-03-23T11:51:47;3.40;;;0.97;;
4307;SDS011;2167;53.448;9.984;2024-03-23T12:01:04;4.93;;;1.37;;
4307;SDS011;2167;53.448;9.984;2024-03-23T12:03:35;1.37;;;0.80;;
4307;SDS011;2167;53.448;9.984;2024-03-23T12:06:01;3.90;;;1.27;;
4307;SDS011;2167;53.448;9.984;2024-03-23T12:13:34;1.93;;;1.27;;
4307;SDS011;2167;53.448;9.984;2024-03-23T12:18:36;1.97;;;0.90;;
4307;SDS011;2167;53.448;9.984;2024-03-23T12:21:02;1.63;;;1.20;;
4307;SDS011;2167;53.448;9.984;2024-03-23T12:23:29;2.23;;;1.00;;
4307;SDS011;2167;53.448;9.984;2024-03-23T12:25:54;6.13;;;1.47;;
4307;SDS011;2167;53.448;9.984;2024-03-23T12:28:20;3.77;;;1.10;;
4307;SDS011;2167;53.448;9.984;2024-03-23T12:30:45;3.20;;;1.27;;
4307;SDS011;2167;53.448;9.984;2024-03-23T12:33:11;1.90;;;0.53;;
4307;SDS011;2167;53.448;9.984;2024-03-23T12:35:36;2.00;;;0.90;;
4307;SDS011;2167;53.448;9.984;2024-03-23T12:38:03;3.87;;;1.47;;
4307;SDS011;2167;53.448;9.984;2024-03-23T12:40:29;1.67;;;1.07;;
4307;SDS011;2167;53.448;9.984;2024-03-23T12:42:55;0.80;;;0.70;;
4307;SDS011;2167;53.448;9.984;2024-03-23T12:45:48;3.27;;;1.33;;
4307;SDS011;2167;53.448;9.984;2024-03-23T12:48:14;3.30;;;0.83;;
4307;SDS011;2167;53.448;9.984;2024-03-23T12:50:40;1.30;;;0.60;;
4307;SDS011;2167;53.448;9.984;2024-03-23T12:53:29;2.57;;;0.57;;
4307;SDS011;2167;53.448;9.984;2024-03-23T12:56:02;1.20;;;0.40;;
4307;SDS011;2167;53.448;9.984;2024-03-23T13:02:42;0.43;;;0.43;;
4307;SDS011;2167;53.448;9.984;2024-03-23T13:05:08;0.60;;;0.57;;
4307;SDS011;2167;53.448;9.984;2024-03-23T13:07:36;2.50;;;0.73;;
4307;SDS011;2167;53.448;9.984;2024-03-23T13:10:03;1.03;;;0.43;;
4307;SDS011;2167;53.448;9.984;2024-03-23T13:12:32;6.70;;;0.63;;
4307;SDS011;2167;53.448;9.984;2024-03-23T13:14:58;5.80;;;0.83;;
4307;SDS011;2167;53.448;9.984;2024-03-23T13:17:24;3.23;;;0.90;;
4307;SDS011;2167;53.448;9.984;2024-03-23T13:19:52;6.07;;;0.70;;
4307;SDS011;2167;53.448;9.984;2024-03-23T13:22:17;2.03;;;1.07;;
4307;SDS011;2167;53.448;9.984;2024-03-23T13:24:43;0.63;;;0.63;;
4307;SDS011;2167;53.448;9.984;2024-03-23T13:27:09;0.77;;;0.77;;
4307;SDS011;2167;53.448;9.984;2024-03-23T13:29:36;1.37;;;0.80;;
4307;SDS011;2167;53.448;9.984;2024-03-23T13:32:05;0.63;;;0.53;;
4307;SDS011;2167;53.448;9.984;2024-03-23T13:34:32;4.40;;;0.70;;
4307;SDS011;2167;53.448;9.984;2024-03-23T13:37:01;1.10;;;0.70;;
4307;SDS011;2167;53.448;9.984;2024-03-23T13:39:26;4.33;;;1.03;;
4307;SDS011;2167;53.448;9.984;2024-03-23T13:41:52;1.90;;;0.60;;
4307;SDS011;2167;53.448;9.984;2024-03-23T13:44:19;0.70;;;0.60;;
4307;SDS011;2167;53.448;9.984;2024-03-23T13:46:45;0.50;;;0.50;;
4307;SDS011;2167;53.448;9.984;2024-03-23T13:49:33;2.08;;;0.93;;
4307;SDS011;2167;53.448;9.984;2024-03-23T13:51:58;5.60;;;0.63;;
4307;SDS011;2167;53.448;9.984;2024-03-23T13:54:27;0.40;;;0.40;;
4307;SDS011;2167;53.448;9.984;2024-03-23T13:56:54;0.30;;;0.30;;
4307;SDS011;2167;53.448;9.984;2024-03-23T13:59:20;0.50;;;0.50;;
4307;SDS011;2167;53.448;9.984;2024-03-23T14:01:48;0.87;;;0.87;;
4307;SDS011;2167;53.448;9.984;2024-03-23T14:04:14;0.70;;;0.43;;
4307;SDS011;2167;53.448;9.984;2024-03-23T14:06:41;0.70;;;0.40;;
4307;SDS011;2167;53.448;9.984;2024-03-23T14:09:07;2.67;;;0.40;;
4307;SDS011;2167;53.448;9.984;2024-03-23T14:11:36;0.80;;;0.60;;
4307;SDS011;2167;53.448;9.984;2024-03-23T14:14:02;0.70;;;0.37;;
4307;SDS011;2167;53.448;9.984;2024-03-23T14:16:28;1.23;;;0.40;;
4307;SDS011;2167;53.448;9.984;2024-03-23T14:18:58;1.37;;;1.27;;
4307;SDS011;2167;53.448;9.984;2024-03-23T14:21:24;0.40;;;0.40;;
4307;SDS011;2167;53.448;9.984;2024-03-23T14:27:50;1.30;;;1.00;;
4307;SDS011;2167;53.448;9.984;2024-03-23T14:30:19;3.83;;;0.87;;
4307;SDS011;2167;53.448;9.984;2024-03-23T14:32:45;1.80;;;0.60;;
4307;SDS011;2167;53.448;9.984;2024-03-23T14:35:10;0.40;;;0.40;;
4307;SDS011;2167;53.448;9.984;2024-03-23T14:37:37;6.20;;;0.70;;
4307;SDS011;2167;53.448;9.984;2024-03-23T14:40:03;1.33;;;0.50;;
4307;SDS011;2167;53.448;9.984;2024-03-23T14:48:41;4.03;;;1.07;;
4307;SDS011;2167;53.448;9.984;2024-03-23T14:51:07;2.53;;;0.67;;
4307;SDS011;2167;53.448;9.984;2024-03-23T14:53:34;0.67;;;0.67;;
4307;SDS011;2167;53.448;9.984;2024-03-23T14:56:01;1.73;;;0.70;;
4307;SDS011;2167;53.448;9.984;2024-03-23T14:58:28;0.87;;;0.53;;
4307;SDS011;2167;53.448;9.984;2024-03-23T15:01:15;1.10;;;0.80;;
4307;SDS011;2167;53.448;9.984;2024-03-23T15:03:40;0.60;;;0.60;;
4307;SDS011;2167;53.448;9.984;2024-03-23T15:06:07;0.87;;;0.60;;
4307;SDS011;2167;53.448;9.984;2024-03-23T15:08:36;1.57;;;0.47;;
4307;SDS011;2167;53.448;9.984;2024-03-23T15:11:03;1.43;;;0.80;;
4307;SDS011;2167;53.448;9.984;2024-03-23T15:13:32;0.40;;;0.40;;
4307;SDS011;2167;53.448;9.984;2024-03-23T15:16:01;4.00;;;0.87;;
4307;SDS011;2167;53.448;9.984;2024-03-23T15:18:29;2.43;;;0.70;;
4307;SDS011;2167;53.448;9.984;2024-03-23T15:20:55;0.90;;;0.70;;
4307;SDS011;2167;53.448;9.984;2024-03-23T15:23:22;1.60;;;0.70;;
4307;SDS011;2167;53.448;9.984;2024-03-23T15:25:54;1.43;;;1.17;;
4307;SDS011;2167;53.448;9.984;2024-03-23T15:28:21;3.83;;;0.90;;
4307;SDS011;2167;53.448;9.984;2024-03-23T15:31:06;0.90;;;0.50;;
4307;SDS011;2167;53.448;9.984;2024-03-23T15:37:42;1.80;;;0.50;;
4307;SDS011;2167;53.448;9.984;2024-03-23T15:44:31;0.90;;;0.83;;
4307;SDS011;2167;53.448;9.984;2024-03-23T15:49:45;2.50;;;0.80;;
4307;SDS011;2167;53.448;9.984;2024-03-23T15:52:11;1.20;;;0.80;;
4307;SDS011;2167;53.448;9.984;2024-03-23T15:54:36;4.13;;;1.20;;
4307;SDS011;2167;53.448;9.984;2024-03-23T15:57:02;3.33;;;0.90;;
4307;SDS011;2167;53.448;9.984;2024-03-23T15:59:28;1.83;;;0.53;;
4307;SDS011;2167;53.448;9.984;2024-03-23T16:01:54;0.73;;;0.53;;
4307;SDS011;2167;53.448;9.984;2024-03-23T16:04:20;3.90;;;1.27;;
4307;SDS011;2167;53.448;9.984;2024-03-23T16:06:45;0.90;;;0.80;;
4307;SDS011;2167;53.448;9.984;2024-03-23T16:09:11;1.70;;;0.40;;
4307;SDS011;2167;53.448;9.984;2024-03-23T16:11:36;0.90;;;0.50;;
4307;SDS011;2167;53.448;9.984;2024-03-23T16:14:02;3.03;;;0.63;;
4307;SDS011;2167;53.448;9.984;2024-03-23T16:16:27;0.73;;;0.47;;
4307;SDS011;2167;53.448;9.984;2024-03-23T16:18:53;2.40;;;1.07;;
4307;SDS011;2167;53.448;9.984;2024-03-23T16:21:19;0.73;;;0.63;;
4307;SDS011;2167;53.448;9.984;2024-03-23T16:23:44;0.30;;;0.30;;
4307;SDS011;2167;53.448;9.984;2024-03-23T16:26:11;0.60;;;0.40;;
4307;SDS011;2167;53.448;9.984;2024-03-23T16:28:37;1.13;;;0.50;;
4307;SDS011;2167;53.448;9.984;2024-03-23T16:31:09;0.70;;;0.30;;
4307;SDS011;2167;53.448;9.984;2024-03-23T16:33:35;1.17;;;0.50;;
4307;SDS011;2167;53.448;9.984;2024-03-23T16:36:03;0.87;;;0.60;;
4307;SDS011;2167;53.448;9.984;2024-03-23T16:38:31;0.80;;;0.30;;
4307;SDS011;2167;53.448;9.984;2024-03-23T16:41:01;1.27;;;0.80;;
4307;SDS011;2167;53.448;9.984;2024-03-23T16:43:31;0.50;;;0.50;;
4307;SDS011;2167;53.448;9.984;2024-03-23T16:45:58;0.80;;;0.40;;
4307;SDS011;2167;53.448;9.984;2024-03-23T16:48:26;1.03;;;0.50;;
4307;SDS011;2167;53.448;9.984;2024-03-23T16:50:52;1.00;;;0.50;;
4307;SDS011;2167;53.448;9.984;2024-03-23T16:53:18;6.20;;;1.20;;
4307;SDS011;2167;53.448;9.984;2024-03-23T16:55:44;0.50;;;0.50;;
4307;SDS011;2167;53.448;9.984;2024-03-23T16:58:10;1.70;;;0.60;;
4307;SDS011;2167;53.448;9.984;2024-03-23T17:00:36;1.20;;;0.87;;
4307;SDS011;2167;53.448;9.984;2024-03-23T17:03:02;3.20;;;1.00;;
4307;SDS011;2167;53.448;9.984;2024-03-23T17:05:28;3.43;;;0.73;;
4307;SDS011;2167;53.448;9.984;2024-03-23T17:07:54;0.60;;;0.50;;
4307;SDS011;2167;53.448;9.984;2024-03-23T17:10:21;0.30;;;0.23;;
4307;SDS011;2167;53.448;9.984;2024-03-23T17:12:47;3.17;;;0.43;;
4307;SDS011;2167;53.448;9.984;2024-03-23T17:15:13;0.87;;;0.53;;
4307;SDS011;2167;53.448;9.984;2024-03-23T17:17:39;1.10;;;0.60;;
4307;SDS011;2167;53.448;9.984;2024-03-23T17:20:06;0.93;;;0.40;;
4307;SDS011;2167;53.448;9.984;2024-03-23T17:22:32;0.47;;;0.40;;
4307;SDS011;2167;53.448;9.984;2024-03-23T17:24:57;0.40;;;0.40;;
4307;SDS011;2167;53.448;9.984;2024-03-23T17:27:23;2.73;;;0.50;;
4307;SDS011;2167;53.448;9.984;2024-03-23T17:29:48;7.20;;;0.93;;
4307;SDS011;2167;53.448;9.984;2024-03-23T17:32:14;0.30;;;0.30;;
4307;SDS011;2167;53.448;9.984;2024-03-23T17:34:40;1.73;;;0.70;;
4307;SDS011;2167;53.448;9.984;2024-03-23T17:37:05;2.77;;;0.60;;
4307;SDS011;2167;53.448;9.984;2024-03-23T17:39:31;1.93;;;0.73;;
4307;SDS011;2167;53.448;9.984;2024-03-23T17:41:57;0.40;;;0.40;;
4307;SDS011;2167;53.448;9.984;2024-03-23T17:44:23;1.13;;;0.53;;
4307;SDS011;2167;53.448;9.984;2024-03-23T17:46:48;2.97;;;0.60;;
4307;SDS011;2167;53.448;9.984;2024-03-23T17:49:14;0.60;;;0.60;;
4307;SDS011;2167;53.448;9.984;2024-03-23T17:51:41;0.90;;;0.67;;
4307;SDS011;2167;53.448;9.984;2024-03-23T17:54:07;3.50;;;1.90;;
4307;SDS011;2167;53.448;9.984;2024-03-23T17:56:32;1.53;;;0.73;;
4307;SDS011;2167;53.448;9.984;2024-03-23T17:58:58;3.73;;;1.00;;
4307;SDS011;2167;53.448;9.984;2024-03-23T18:01:24;1.40;;;1.10;;
4307;SDS011;2167;53.448;9.984;2024-03-23T18:03:52;5.00;;;0.83;;
4307;SDS011;2167;53.448;9.984;2024-03-23T18:06:19;2.60;;;1.10;;